sensor_id;sensor_type;location;lat;lon;timestamp;P1;durP1;ratioP1;P2;durP2;ratioP2
72273;SDS011;60208;48.692;8.948;2023-04-03T00:00:58;4.82;;;2.88;;
72273;SDS011;60208;48.692;8.948;2023-04-03T00:03:23;4.43;;;2.77;;
72273;SDS011;60208;48.692;8.948;2023-04-03T00:05:48;5.35;;;2.83;;
72273;SDS011;60208;48.692;8.948;2023-04-03T00:08:14;3.47;;;2.63;;
72273;SDS011;60208;48.692;8.948;2023-04-03T00:10:39;4.72;;;2.90;;
72273;SDS011;60208;48.692;8.948;2023-04-03T00:13:05;3.58;;;3.00;;
72273;SDS011;60208;48.692;8.948;2023-04-03T00:15:30;3.42;;;2.75;;
72273;SDS011;60208;48.692;8.948;2023-04-03T00:17:55;6.30;;;2.80;;
72273;SDS011;60208;48.692;8.948;2023-04-03T00:20:21;5.93;;;2.75;;
72273;SDS011;60208;48.692;8.948;2023-04-03T00:22:46;4.68;;;2.75;;
72273;SDS011;60208;48.692;8.948;2023-04-03T00:25:11;5.90;;;3.00;;
72273;SDS011;60208;48.692;8.948;2023-04-03T00:27:37;3.72;;;2.83;;
72273;SDS011;60208;48.692;8.948;2023-04-03T00:30:03;3.72;;;2.75;;
72273;SDS011;60208;48.692;8.948;2023-04-03T00:32:28;5.18;;;2.85;;
72273;SDS011;60208;48.692;8.948;2023-04-03T00:34:53;4.82;;;2.90;;
72273;SDS011;60208;48.692;8.948;2023-04-03T00:37:19;4.43;;;3.35;;
72273;SDS011;60208;48.692;8.948;2023-04-03T00:39:44;3.90;;;2.80;;
72273;SDS011;60208;48.692;8.948;2023-04-03T00:42:10;3.80;;;2.80;;
72273;SDS011;60208;48.692;8.948;2023-04-03T00:47:02;4.70;;;2.90;;
72273;SDS011;60208;48.692;8.948;2023-04-03T00:49:28;4.93;;;2.80;;
72273;SDS011;60208;48.692;8.948;2023-04-03T00:51:54;4.07;;;2.90;;
72273;SDS011;60208;48.692;8.948;2023-04-03T00:54:20;4.65;;;2.88;;
72273;SDS011;60208;48.692;8.948;2023-04-03T00:56:45;4.07;;;2.83;;
72273;SDS011;60208;48.692;8.948;2023-04-03T00:59:18;4.15;;;3.17;;
72273;SDS011;60208;48.692;8.948;2023-04-03T01:01:47;4.03;;;2.97;;
72273;SDS011;60208;48.692;8.948;2023-04-03T01:04:29;3.63;;;3.00;;
72273;SDS011;60208;48.692;8.948;2023-04-03T01:06:56;3.78;;;2.78;;
72273;SDS011;60208;48.692;8.948;2023-04-03T01:09:22;3.22;;;2.83;;
72273;SDS011;60208;48.692;8.948;2023-04-03T01:11:48;4.95;;;3.03;;
72273;SDS011;60208;48.692;8.948;2023-04-03T01:14:13;4.70;;;2.90;;
72273;SDS011;60208;48.692;8.948;2023-04-03T01:16:38;4.80;;;2.95;;
72273;SDS011;60208;48.692;8.948;2023-04-03T01:19:05;4.75;;;3.13;;
72273;SDS011;60208;48.692;8.948;2023-04-03T01:24:32;5.57;;;3.28;;
72273;SDS011;60208;48.692;8.948;2023-04-03T01:26:58;5.28;;;3.33;;
72273;SDS011;60208;48.692;8.948;2023-04-03T01:29:24;4.05;;;3.20;;
72273;SDS011;60208;48.692;8.948;2023-04-03T01:31:50;4.05;;;2.92;;
72273;SDS011;60208;48.692;8.948;2023-04-03T01:34:16;4.63;;;3.17;;
72273;SDS011;60208;48.692;8.948;2023-04-03T01:36:41;5.82;;;3.05;;
72273;SDS011;60208;48.692;8.948;2023-04-03T01:39:07;3.28;;;2.92;;
72273;SDS011;60208;48.692;8.948;2023-04-03T01:41:33;4.87;;;3.07;;
72273;SDS011;60208;48.692;8.948;2023-04-03T01:43:58;3.78;;;2.95;;
72273;SDS011;60208;48.692;8.948;2023-04-03T01:46:23;4.03;;;3.10;;
72273;SDS011;60208;48.692;8.948;2023-04-03T01:48:48;4.57;;;3.10;;
72273;SDS011;60208;48.692;8.948;2023-04-03T01:51:14;4.07;;;3.00;;
72273;SDS011;60208;48.692;8.948;2023-04-03T01:53:39;4.53;;;3.20;;
72273;SDS011;60208;48.692;8.948;2023-04-03T01:56:04;4.35;;;2.85;;
72273;SDS011;60208;48.692;8.948;2023-04-03T01:58:30;5.55;;;2.92;;
72273;SDS011;60208;48.692;8.948;2023-04-03T02:00:55;5.18;;;3.10;;
72273;SDS011;60208;48.692;8.948;2023-04-03T02:03:20;4.13;;;3.55;;
72273;SDS011;60208;48.692;8.948;2023-04-03T02:05:46;3.83;;;3.05;;
72273;SDS011;60208;48.692;8.948;2023-04-03T02:08:11;3.87;;;2.90;;
72273;SDS011;60208;48.692;8.948;2023-04-03T02:10:36;6.05;;;3.45;;
72273;SDS011;60208;48.692;8.948;2023-04-03T02:13:01;3.42;;;2.80;;
72273;SDS011;60208;48.692;8.948;2023-04-03T02:15:27;5.93;;;3.22;;
72273;SDS011;60208;48.692;8.948;2023-04-03T02:17:52;3.78;;;2.92;;
72273;SDS011;60208;48.692;8.948;2023-04-03T02:20:17;4.10;;;2.95;;
72273;SDS011;60208;48.692;8.948;2023-04-03T02:22:42;4.85;;;2.97;;
72273;SDS011;60208;48.692;8.948;2023-04-03T02:25:08;4.40;;;2.95;;
72273;SDS011;60208;48.692;8.948;2023-04-03T02:27:34;6.60;;;3.42;;
72273;SDS011;60208;48.692;8.948;2023-04-03T02:30:00;4.22;;;2.90;;
72273;SDS011;60208;48.692;8.948;2023-04-03T02:32:25;4.95;;;3.45;;
72273;SDS011;60208;48.692;8.948;2023-04-03T02:34:51;3.83;;;3.15;;
72273;SDS011;60208;48.692;8.948;2023-04-03T02:37:16;3.93;;;3.10;;
72273;SDS011;60208;48.692;8.948;2023-04-03T02:39:41;4.47;;;3.05;;
72273;SDS011;60208;48.692;8.948;2023-04-03T02:42:06;3.50;;;3.03;;
72273;SDS011;60208;48.692;8.948;2023-04-03T02:44:32;4.82;;;3.10;;
72273;SDS011;60208;48.692;8.948;2023-04-03T02:46:57;4.80;;;3.08;;
72273;SDS011;60208;48.692;8.948;2023-04-03T02:49:23;5.70;;;3.38;;
72273;SDS011;60208;48.692;8.948;2023-04-03T02:51:48;4.20;;;3.25;;
72273;SDS011;60208;48.692;8.948;2023-04-03T02:54:13;4.88;;;3.20;;
72273;SDS011;60208;48.692;8.948;2023-04-03T02:56:38;3.78;;;3.17;;
72273;SDS011;60208;48.692;8.948;2023-04-03T02:59:04;3.20;;;2.90;;
72273;SDS011;60208;48.692;8.948;2023-04-03T03:01:30;4.65;;;3.05;;
72273;SDS011;60208;48.692;8.948;2023-04-03T03:03:57;6.35;;;3.13;;
72273;SDS011;60208;48.692;8.948;2023-04-03T03:06:22;4.28;;;3.30;;
72273;SDS011;60208;48.692;8.948;2023-04-03T03:08:48;4.40;;;3.17;;
72273;SDS011;60208;48.692;8.948;2023-04-03T03:11:13;4.88;;;3.10;;
72273;SDS011;60208;48.692;8.948;2023-04-03T03:13:38;5.32;;;3.17;;
72273;SDS011;60208;48.692;8.948;2023-04-03T03:16:04;4.53;;;3.30;;
72273;SDS011;60208;48.692;8.948;2023-04-03T03:18:29;4.05;;;3.35;;
72273;SDS011;60208;48.692;8.948;2023-04-03T03:20:55;4.93;;;2.90;;
72273;SDS011;60208;48.692;8.948;2023-04-03T03:23:21;4.28;;;3.05;;
72273;SDS011;60208;48.692;8.948;2023-04-03T03:25:47;4.57;;;3.35;;
72273;SDS011;60208;48.692;8.948;2023-04-03T03:28:12;4.95;;;3.08;;
72273;SDS011;60208;48.692;8.948;2023-04-03T03:30:38;5.20;;;3.13;;
72273;SDS011;60208;48.692;8.948;2023-04-03T03:33:03;3.30;;;3.00;;
72273;SDS011;60208;48.692;8.948;2023-04-03T03:35:28;4.13;;;3.10;;
72273;SDS011;60208;48.692;8.948;2023-04-03T03:37:54;4.22;;;3.22;;
72273;SDS011;60208;48.692;8.948;2023-04-03T03:40:19;5.03;;;3.20;;
72273;SDS011;60208;48.692;8.948;2023-04-03T03:42:44;4.97;;;3.50;;
72273;SDS011;60208;48.692;8.948;2023-04-03T03:45:10;6.10;;;2.72;;
72273;SDS011;60208;48.692;8.948;2023-04-03T03:47:35;5.32;;;3.10;;
72273;SDS011;60208;48.692;8.948;2023-04-03T03:50:01;5.35;;;3.97;;
72273;SDS011;60208;48.692;8.948;2023-04-03T03:52:26;4.05;;;3.28;;
72273;SDS011;60208;48.692;8.948;2023-04-03T03:54:51;3.55;;;2.88;;
72273;SDS011;60208;48.692;8.948;2023-04-03T03:57:17;4.00;;;3.00;;
72273;SDS011;60208;48.692;8.948;2023-04-03T03:59:42;4.72;;;3.05;;
72273;SDS011;60208;48.692;8.948;2023-04-03T04:02:08;3.78;;;3.03;;
72273;SDS011;60208;48.692;8.948;2023-04-03T04:04:34;4.15;;;3.10;;
72273;SDS011;60208;48.692;8.948;2023-04-03T04:06:59;4.00;;;2.90;;
72273;SDS011;60208;48.692;8.948;2023-04-03T04:09:25;4.65;;;2.90;;
72273;SDS011;60208;48.692;8.948;2023-04-03T04:11:50;4.18;;;3.22;;
72273;SDS011;60208;48.692;8.948;2023-04-03T04:14:16;3.83;;;3.03;;
72273;SDS011;60208;48.692;8.948;2023-04-03T04:16:41;4.80;;;2.90;;
72273;SDS011;60208;48.692;8.948;2023-04-03T04:19:06;5.43;;;2.83;;
72273;SDS011;60208;48.692;8.948;2023-04-03T04:21:31;3.40;;;2.78;;
72273;SDS011;60208;48.692;8.948;2023-04-03T04:23:57;4.20;;;2.97;;
72273;SDS011;60208;48.692;8.948;2023-04-03T04:26:22;4.60;;;2.70;;
72273;SDS011;60208;48.692;8.948;2023-04-03T04:28:47;4.40;;;2.78;;
72273;SDS011;60208;48.692;8.948;2023-04-03T04:31:14;4.47;;;2.92;;
72273;SDS011;60208;48.692;8.948;2023-04-03T04:33:39;4.53;;;3.10;;
72273;SDS011;60208;48.692;8.948;2023-04-03T04:36:04;8.00;;;2.92;;
72273;SDS011;60208;48.692;8.948;2023-04-03T04:38:29;5.00;;;3.22;;
72273;SDS011;60208;48.692;8.948;2023-04-03T04:40:55;6.38;;;3.40;;
72273;SDS011;60208;48.692;8.948;2023-04-03T04:43:20;3.90;;;3.15;;
72273;SDS011;60208;48.692;8.948;2023-04-03T04:45:45;8.38;;;2.95;;
72273;SDS011;60208;48.692;8.948;2023-04-03T04:48:11;5.28;;;3.40;;
72273;SDS011;60208;48.692;8.948;2023-04-03T04:50:36;4.97;;;3.05;;
72273;SDS011;60208;48.692;8.948;2023-04-03T04:53:02;4.63;;;3.17;;
72273;SDS011;60208;48.692;8.948;2023-04-03T04:55:27;5.00;;;3.13;;
72273;SDS011;60208;48.692;8.948;2023-04-03T04:57:52;4.53;;;3.90;;
72273;SDS011;60208;48.692;8.948;2023-04-03T05:00:17;3.95;;;3.28;;
72273;SDS011;60208;48.692;8.948;2023-04-03T05:02:43;5.13;;;3.10;;
72273;SDS011;60208;48.692;8.948;2023-04-03T05:05:08;4.32;;;3.50;;
72273;SDS011;60208;48.692;8.948;2023-04-03T05:07:34;4.45;;;3.28;;
72273;SDS011;60208;48.692;8.948;2023-04-03T05:10:00;3.70;;;2.75;;
72273;SDS011;60208;48.692;8.948;2023-04-03T05:12:25;6.90;;;3.70;;
72273;SDS011;60208;48.692;8.948;2023-04-03T05:14:51;7.45;;;3.33;;
72273;SDS011;60208;48.692;8.948;2023-04-03T05:17:16;4.30;;;3.05;;
72273;SDS011;60208;48.692;8.948;2023-04-03T05:19:41;5.20;;;3.08;;
72273;SDS011;60208;48.692;8.948;2023-04-03T05:22:06;4.68;;;3.15;;
72273;SDS011;60208;48.692;8.948;2023-04-03T05:24:32;5.63;;;3.00;;
72273;SDS011;60208;48.692;8.948;2023-04-03T05:26:57;5.00;;;3.25;;
72273;SDS011;60208;48.692;8.948;2023-04-03T05:29:23;4.78;;;3.15;;
72273;SDS011;60208;48.692;8.948;2023-04-03T05:31:49;5.30;;;3.30;;
72273;SDS011;60208;48.692;8.948;2023-04-03T05:34:15;7.57;;;3.45;;
72273;SDS011;60208;48.692;8.948;2023-04-03T05:36:40;3.08;;;2.60;;
72273;SDS011;60208;48.692;8.948;2023-04-03T05:39:06;3.20;;;2.90;;
72273;SDS011;60208;48.692;8.948;2023-04-03T05:41:31;3.60;;;2.63;;
72273;SDS011;60208;48.692;8.948;2023-04-03T05:43:56;3.17;;;2.60;;
72273;SDS011;60208;48.692;8.948;2023-04-03T05:46:22;4.20;;;2.40;;
72273;SDS011;60208;48.692;8.948;2023-04-03T05:48:47;4.80;;;2.45;;
72273;SDS011;60208;48.692;8.948;2023-04-03T05:51:17;4.32;;;2.85;;
72273;SDS011;60208;48.692;8.948;2023-04-03T05:53:43;3.95;;;2.20;;
72273;SDS011;60208;48.692;8.948;2023-04-03T05:56:08;6.15;;;2.65;;
72273;SDS011;60208;48.692;8.948;2023-04-03T05:58:33;2.73;;;2.07;;
72273;SDS011;60208;48.692;8.948;2023-04-03T06:00:59;4.22;;;2.25;;
72273;SDS011;60208;48.692;8.948;2023-04-03T06:03:24;3.95;;;2.10;;
72273;SDS011;60208;48.692;8.948;2023-04-03T06:05:50;3.70;;;2.50;;
72273;SDS011;60208;48.692;8.948;2023-04-03T06:08:15;2.75;;;2.30;;
72273;SDS011;60208;48.692;8.948;2023-04-03T06:10:40;4.97;;;2.35;;
72273;SDS011;60208;48.692;8.948;2023-04-03T06:13:06;4.53;;;2.75;;
72273;SDS011;60208;48.692;8.948;2023-04-03T06:15:31;2.90;;;2.58;;
72273;SDS011;60208;48.692;8.948;2023-04-03T06:17:56;2.65;;;2.42;;
72273;SDS011;60208;48.692;8.948;2023-04-03T06:20:21;2.93;;;2.40;;
72273;SDS011;60208;48.692;8.948;2023-04-03T06:22:47;3.50;;;2.58;;
72273;SDS011;60208;48.692;8.948;2023-04-03T06:25:12;4.05;;;2.28;;
72273;SDS011;60208;48.692;8.948;2023-04-03T06:27:37;2.70;;;2.50;;
72273;SDS011;60208;48.692;8.948;2023-04-03T06:30:03;3.15;;;2.67;;
72273;SDS011;60208;48.692;8.948;2023-04-03T06:32:28;3.53;;;2.72;;
72273;SDS011;60208;48.692;8.948;2023-04-03T06:34:53;4.30;;;2.60;;
72273;SDS011;60208;48.692;8.948;2023-04-03T06:37:21;3.53;;;2.70;;
72273;SDS011;60208;48.692;8.948;2023-04-03T06:39:47;6.45;;;2.63;;
72273;SDS011;60208;48.692;8.948;2023-04-03T06:42:12;3.30;;;2.42;;
72273;SDS011;60208;48.692;8.948;2023-04-03T06:44:38;4.20;;;2.65;;
72273;SDS011;60208;48.692;8.948;2023-04-03T06:47:03;3.63;;;2.40;;
72273;SDS011;60208;48.692;8.948;2023-04-03T06:49:28;3.78;;;2.80;;
72273;SDS011;60208;48.692;8.948;2023-04-03T06:51:54;3.90;;;2.60;;
72273;SDS011;60208;48.692;8.948;2023-04-03T06:54:19;5.60;;;2.90;;
72273;SDS011;60208;48.692;8.948;2023-04-03T06:56:44;4.32;;;2.75;;
72273;SDS011;60208;48.692;8.948;2023-04-03T06:59:10;4.43;;;2.50;;
72273;SDS011;60208;48.692;8.948;2023-04-03T07:01:37;3.05;;;2.40;;
72273;SDS011;60208;48.692;8.948;2023-04-03T07:04:02;3.95;;;2.30;;
72273;SDS011;60208;48.692;8.948;2023-04-03T07:06:27;3.53;;;2.50;;
72273;SDS011;60208;48.692;8.948;2023-04-03T07:08:53;4.75;;;2.50;;
72273;SDS011;60208;48.692;8.948;2023-04-03T07:11:18;4.47;;;2.20;;
72273;SDS011;60208;48.692;8.948;2023-04-03T07:13:44;3.38;;;2.25;;
72273;SDS011;60208;48.692;8.948;2023-04-03T07:16:09;5.43;;;2.40;;
72273;SDS011;60208;48.692;8.948;2023-04-03T07:18:35;5.80;;;2.70;;
72273;SDS011;60208;48.692;8.948;2023-04-03T07:21:01;4.10;;;2.38;;
72273;SDS011;60208;48.692;8.948;2023-04-03T07:23:26;3.30;;;2.20;;
72273;SDS011;60208;48.692;8.948;2023-04-03T07:25:52;4.68;;;2.50;;
72273;SDS011;60208;48.692;8.948;2023-04-03T07:28:18;5.10;;;3.35;;
72273;SDS011;60208;48.692;8.948;2023-04-03T07:30:48;3.58;;;2.35;;
72273;SDS011;60208;48.692;8.948;2023-04-03T07:33:14;4.50;;;2.70;;
72273;SDS011;60208;48.692;8.948;2023-04-03T07:35:40;7.55;;;3.92;;
72273;SDS011;60208;48.692;8.948;2023-04-03T07:38:05;9.30;;;6.00;;
72273;SDS011;60208;48.692;8.948;2023-04-03T07:40:31;7.97;;;5.20;;
72273;SDS011;60208;48.692;8.948;2023-04-03T07:42:56;4.50;;;2.85;;
72273;SDS011;60208;48.692;8.948;2023-04-03T07:45:22;4.82;;;3.67;;
72273;SDS011;60208;48.692;8.948;2023-04-03T07:47:47;3.80;;;2.90;;
72273;SDS011;60208;48.692;8.948;2023-04-03T07:50:13;3.00;;;2.25;;
72273;SDS011;60208;48.692;8.948;2023-04-03T07:52:38;5.22;;;2.67;;
72273;SDS011;60208;48.692;8.948;2023-04-03T07:55:03;4.97;;;2.40;;
72273;SDS011;60208;48.692;8.948;2023-04-03T07:57:28;4.47;;;2.25;;
72273;SDS011;60208;48.692;8.948;2023-04-03T07:59:54;4.00;;;2.42;;
72273;SDS011;60208;48.692;8.948;2023-04-03T08:02:19;3.78;;;2.70;;
72273;SDS011;60208;48.692;8.948;2023-04-03T08:04:45;8.20;;;3.00;;
72273;SDS011;60208;48.692;8.948;2023-04-03T08:07:10;5.63;;;2.80;;
72273;SDS011;60208;48.692;8.948;2023-04-03T08:09:35;4.18;;;2.35;;
72273;SDS011;60208;48.692;8.948;2023-04-03T08:12:01;3.88;;;2.50;;
72273;SDS011;60208;48.692;8.948;2023-04-03T08:14:26;7.00;;;2.50;;
72273;SDS011;60208;48.692;8.948;2023-04-03T08:16:51;6.05;;;2.40;;
72273;SDS011;60208;48.692;8.948;2023-04-03T08:19:17;3.03;;;2.33;;
72273;SDS011;60208;48.692;8.948;2023-04-03T08:21:43;3.25;;;2.17;;
72273;SDS011;60208;48.692;8.948;2023-04-03T08:24:09;3.40;;;2.40;;
72273;SDS011;60208;48.692;8.948;2023-04-03T08:26:35;6.38;;;2.67;;
72273;SDS011;60208;48.692;8.948;2023-04-03T08:29:00;3.40;;;2.33;;
72273;SDS011;60208;48.692;8.948;2023-04-03T08:31:26;4.60;;;2.67;;
72273;SDS011;60208;48.692;8.948;2023-04-03T08:33:51;4.95;;;2.60;;
72273;SDS011;60208;48.692;8.948;2023-04-03T08:36:21;4.57;;;2.60;;
72273;SDS011;60208;48.692;8.948;2023-04-03T08:38:47;5.07;;;3.03;;
72273;SDS011;60208;48.692;8.948;2023-04-03T08:46:13;4.05;;;2.42;;
72273;SDS011;60208;48.692;8.948;2023-04-03T08:48:40;3.42;;;2.30;;
72273;SDS011;60208;48.692;8.948;2023-04-03T08:51:17;3.53;;;2.38;;
72273;SDS011;60208;48.692;8.948;2023-04-03T08:53:54;4.32;;;2.30;;
72273;SDS011;60208;48.692;8.948;2023-04-03T08:56:21;5.03;;;2.40;;
72273;SDS011;60208;48.692;8.948;2023-04-03T08:58:48;4.05;;;2.60;;
72273;SDS011;60208;48.692;8.948;2023-04-03T09:01:17;3.95;;;2.50;;
72273;SDS011;60208;48.692;8.948;2023-04-03T09:03:43;5.72;;;3.45;;
72273;SDS011;60208;48.692;8.948;2023-04-03T09:11:21;3.65;;;2.30;;
72273;SDS011;60208;48.692;8.948;2023-04-03T09:13:50;3.00;;;2.30;;
72273;SDS011;60208;48.692;8.948;2023-04-03T09:16:20;5.22;;;2.30;;
72273;SDS011;60208;48.692;8.948;2023-04-03T09:18:51;3.92;;;2.47;;
72273;SDS011;60208;48.692;8.948;2023-04-03T09:21:32;4.50;;;2.50;;
72273;SDS011;60208;48.692;8.948;2023-04-03T09:24:00;5.40;;;2.40;;
72273;SDS011;60208;48.692;8.948;2023-04-03T09:26:29;5.35;;;2.67;;
72273;SDS011;60208;48.692;8.948;2023-04-03T09:28:56;5.20;;;2.65;;
72273;SDS011;60208;48.692;8.948;2023-04-03T09:31:23;5.35;;;2.30;;
72273;SDS011;60208;48.692;8.948;2023-04-03T09:33:49;5.13;;;2.30;;
72273;SDS011;60208;48.692;8.948;2023-04-03T09:36:36;2.63;;;2.13;;
72273;SDS011;60208;48.692;8.948;2023-04-03T09:39:05;3.38;;;2.40;;
72273;SDS011;60208;48.692;8.948;2023-04-03T09:41:30;3.42;;;2.30;;
72273;SDS011;60208;48.692;8.948;2023-04-03T09:43:58;3.85;;;2.40;;
72273;SDS011;60208;48.692;8.948;2023-04-03T09:48:56;4.22;;;2.30;;
72273;SDS011;60208;48.692;8.948;2023-04-03T09:51:24;2.47;;;2.28;;
72273;SDS011;60208;48.692;8.948;2023-04-03T09:53:50;9.75;;;3.40;;
72273;SDS011;60208;48.692;8.948;2023-04-03T09:58:41;5.10;;;2.40;;
72273;SDS011;60208;48.692;8.948;2023-04-03T10:01:10;3.65;;;2.10;;
72273;SDS011;60208;48.692;8.948;2023-04-03T10:03:45;4.35;;;2.35;;
72273;SDS011;60208;48.692;8.948;2023-04-03T10:06:23;2.97;;;2.28;;
72273;SDS011;60208;48.692;8.948;2023-04-03T10:14:29;5.70;;;2.50;;
72273;SDS011;60208;48.692;8.948;2023-04-03T10:19:34;5.20;;;2.17;;
72273;SDS011;60208;48.692;8.948;2023-04-03T10:22:10;4.03;;;2.20;;
72273;SDS011;60208;48.692;8.948;2023-04-03T10:24:52;2.83;;;1.92;;
72273;SDS011;60208;48.692;8.948;2023-04-03T10:27:20;3.45;;;2.35;;
72273;SDS011;60208;48.692;8.948;2023-04-03T10:29:59;4.28;;;2.22;;
72273;SDS011;60208;48.692;8.948;2023-04-03T10:35:13;3.33;;;2.40;;
72273;SDS011;60208;48.692;8.948;2023-04-03T10:37:54;3.38;;;2.20;;
72273;SDS011;60208;48.692;8.948;2023-04-03T10:53:39;2.75;;;1.90;;
72273;SDS011;60208;48.692;8.948;2023-04-03T10:55:48;2.42;;;2.10;;
72273;SDS011;60208;48.692;8.948;2023-04-03T10:58:20;2.75;;;1.88;;
72273;SDS011;60208;48.692;8.948;2023-04-03T11:00:47;2.72;;;2.00;;
72273;SDS011;60208;48.692;8.948;2023-04-03T11:03:14;4.57;;;2.28;;
72273;SDS011;60208;48.692;8.948;2023-04-03T11:05:44;4.38;;;2.30;;
72273;SDS011;60208;48.692;8.948;2023-04-03T11:08:33;3.45;;;2.10;;
72273;SDS011;60208;48.692;8.948;2023-04-03T11:10:57;2.97;;;1.90;;
72273;SDS011;60208;48.692;8.948;2023-04-03T11:13:43;3.17;;;2.00;;
72273;SDS011;60208;48.692;8.948;2023-04-03T11:16:13;4.72;;;1.95;;
72273;SDS011;60208;48.692;8.948;2023-04-03T11:18:45;3.40;;;1.90;;
72273;SDS011;60208;48.692;8.948;2023-04-03T11:23:56;3.47;;;2.00;;
72273;SDS011;60208;48.692;8.948;2023-04-03T11:26:24;3.72;;;1.80;;
72273;SDS011;60208;48.692;8.948;2023-04-03T11:28:53;6.75;;;2.88;;
72273;SDS011;60208;48.692;8.948;2023-04-03T11:31:27;3.08;;;1.92;;
72273;SDS011;60208;48.692;8.948;2023-04-03T11:34:08;3.78;;;1.98;;
72273;SDS011;60208;48.692;8.948;2023-04-03T11:36:48;5.43;;;2.30;;
72273;SDS011;60208;48.692;8.948;2023-04-03T11:41:45;3.75;;;1.90;;
72273;SDS011;60208;48.692;8.948;2023-04-03T11:44:45;6.40;;;2.10;;
72273;SDS011;60208;48.692;8.948;2023-04-03T11:47:04;4.18;;;1.88;;
72273;SDS011;60208;48.692;8.948;2023-04-03T11:52:39;4.13;;;1.88;;
72273;SDS011;60208;48.692;8.948;2023-04-03T11:55:00;3.08;;;1.98;;
72273;SDS011;60208;48.692;8.948;2023-04-03T11:57:45;3.72;;;2.03;;
72273;SDS011;60208;48.692;8.948;2023-04-03T12:02:55;4.80;;;2.10;;
72273;SDS011;60208;48.692;8.948;2023-04-03T12:05:25;5.30;;;2.17;;
72273;SDS011;60208;48.692;8.948;2023-04-03T12:10:35;3.53;;;1.98;;
72273;SDS011;60208;48.692;8.948;2023-04-03T12:13:01;5.03;;;1.90;;
72273;SDS011;60208;48.692;8.948;2023-04-03T12:15:44;3.90;;;1.73;;
72273;SDS011;60208;48.692;8.948;2023-04-03T12:20:56;3.67;;;1.80;;
72273;SDS011;60208;48.692;8.948;2023-04-03T12:23:34;3.92;;;1.92;;
72273;SDS011;60208;48.692;8.948;2023-04-03T12:26:05;2.95;;;1.80;;
72273;SDS011;60208;48.692;8.948;2023-04-03T12:28:38;3.45;;;1.67;;
72273;SDS011;60208;48.692;8.948;2023-04-03T12:35:58;2.60;;;1.67;;
72273;SDS011;60208;48.692;8.948;2023-04-03T12:38:50;5.85;;;1.88;;
72273;SDS011;60208;48.692;8.948;2023-04-03T12:46:26;5.05;;;1.75;;
72273;SDS011;60208;48.692;8.948;2023-04-03T12:48:55;4.57;;;1.92;;
72273;SDS011;60208;48.692;8.948;2023-04-03T12:51:21;5.88;;;1.73;;
72273;SDS011;60208;48.692;8.948;2023-04-03T12:53:48;3.42;;;2.00;;
72273;SDS011;60208;48.692;8.948;2023-04-03T12:56:28;3.13;;;1.88;;
72273;SDS011;60208;48.692;8.948;2023-04-03T12:58:54;3.05;;;2.22;;
72273;SDS011;60208;48.692;8.948;2023-04-03T13:01:21;3.67;;;2.05;;
72273;SDS011;60208;48.692;8.948;2023-04-03T13:03:49;3.05;;;1.88;;
72273;SDS011;60208;48.692;8.948;2023-04-03T13:06:19;3.25;;;1.90;;
72273;SDS011;60208;48.692;8.948;2023-04-03T13:08:48;3.53;;;2.00;;
72273;SDS011;60208;48.692;8.948;2023-04-03T13:11:14;3.25;;;2.00;;
72273;SDS011;60208;48.692;8.948;2023-04-03T13:13:39;6.03;;;2.45;;
72273;SDS011;60208;48.692;8.948;2023-04-03T13:16:09;3.78;;;2.33;;
72273;SDS011;60208;48.692;8.948;2023-04-03T13:18:35;2.75;;;1.80;;
72273;SDS011;60208;48.692;8.948;2023-04-03T13:21:03;3.55;;;1.98;;
72273;SDS011;60208;48.692;8.948;2023-04-03T13:23:30;3.17;;;2.25;;
72273;SDS011;60208;48.692;8.948;2023-04-03T13:25:56;2.78;;;2.00;;
72273;SDS011;60208;48.692;8.948;2023-04-03T13:28:26;2.70;;;1.70;;
72273;SDS011;60208;48.692;8.948;2023-04-03T13:34:02;3.85;;;2.03;;
72273;SDS011;60208;48.692;8.948;2023-04-03T13:36:33;3.65;;;1.85;;
72273;SDS011;60208;48.692;8.948;2023-04-03T13:39:21;5.90;;;1.75;;
72273;SDS011;60208;48.692;8.948;2023-04-03T13:41:47;4.88;;;1.70;;
72273;SDS011;60208;48.692;8.948;2023-04-03T13:44:17;6.82;;;1.70;;
72273;SDS011;60208;48.692;8.948;2023-04-03T13:46:42;3.63;;;2.10;;
72273;SDS011;60208;48.692;8.948;2023-04-03T13:54:54;4.38;;;2.17;;
72273;SDS011;60208;48.692;8.948;2023-04-03T13:57:20;3.72;;;2.15;;
72273;SDS011;60208;48.692;8.948;2023-04-03T13:59:45;7.35;;;1.60;;
72273;SDS011;60208;48.692;8.948;2023-04-03T14:02:14;6.97;;;4.13;;
72273;SDS011;60208;48.692;8.948;2023-04-03T14:07:05;2.90;;;1.75;;
72273;SDS011;60208;48.692;8.948;2023-04-03T14:09:31;3.72;;;1.90;;
72273;SDS011;60208;48.692;8.948;2023-04-03T14:12:00;4.00;;;2.00;;
72273;SDS011;60208;48.692;8.948;2023-04-03T14:14:30;3.08;;;1.92;;
72273;SDS011;60208;48.692;8.948;2023-04-03T14:16:57;3.13;;;1.90;;
72273;SDS011;60208;48.692;8.948;2023-04-03T14:19:33;4.40;;;1.80;;
72273;SDS011;60208;48.692;8.948;2023-04-03T14:22:00;4.50;;;1.80;;
72273;SDS011;60208;48.692;8.948;2023-04-03T14:24:26;4.28;;;1.70;;
72273;SDS011;60208;48.692;8.948;2023-04-03T14:26:53;3.08;;;1.80;;
72273;SDS011;60208;48.692;8.948;2023-04-03T14:29:22;5.00;;;2.25;;
72273;SDS011;60208;48.692;8.948;2023-04-03T14:31:48;2.92;;;2.08;;
72273;SDS011;60208;48.692;8.948;2023-04-03T14:34:13;3.60;;;2.08;;
72273;SDS011;60208;48.692;8.948;2023-04-03T14:36:39;3.00;;;1.85;;
72273;SDS011;60208;48.692;8.948;2023-04-03T14:39:06;3.03;;;1.80;;
72273;SDS011;60208;48.692;8.948;2023-04-03T14:41:32;3.17;;;2.30;;
72273;SDS011;60208;48.692;8.948;2023-04-03T14:43:57;4.47;;;1.88;;
72273;SDS011;60208;48.692;8.948;2023-04-03T14:46:30;4.37;;;1.70;;
72273;SDS011;60208;48.692;8.948;2023-04-03T14:48:56;2.38;;;1.73;;
72273;SDS011;60208;48.692;8.948;2023-04-03T14:51:22;2.58;;;1.67;;
72273;SDS011;60208;48.692;8.948;2023-04-03T14:53:47;2.72;;;1.90;;
72273;SDS011;60208;48.692;8.948;2023-04-03T14:56:15;3.33;;;2.03;;
72273;SDS011;60208;48.692;8.948;2023-04-03T14:58:41;3.20;;;1.90;;
72273;SDS011;60208;48.692;8.948;2023-04-03T15:01:09;6.25;;;2.45;;
72273;SDS011;60208;48.692;8.948;2023-04-03T15:03:35;3.60;;;1.90;;
72273;SDS011;60208;48.692;8.948;2023-04-03T15:06:00;4.03;;;2.10;;
72273;SDS011;60208;48.692;8.948;2023-04-03T15:08:26;4.93;;;2.05;;
72273;SDS011;60208;48.692;8.948;2023-04-03T15:10:54;2.63;;;2.00;;
72273;SDS011;60208;48.692;8.948;2023-04-03T15:13:20;3.58;;;2.08;;
72273;SDS011;60208;48.692;8.948;2023-04-03T15:15:46;7.07;;;2.60;;
72273;SDS011;60208;48.692;8.948;2023-04-03T15:18:13;3.90;;;2.03;;
72273;SDS011;60208;48.692;8.948;2023-04-03T15:20:40;9.75;;;2.90;;
72273;SDS011;60208;48.692;8.948;2023-04-03T15:23:05;4.88;;;2.42;;
72273;SDS011;60208;48.692;8.948;2023-04-03T15:25:31;4.97;;;2.10;;
72273;SDS011;60208;48.692;8.948;2023-04-03T15:27:57;4.85;;;1.95;;
72273;SDS011;60208;48.692;8.948;2023-04-03T15:30:22;2.95;;;2.00;;
72273;SDS011;60208;48.692;8.948;2023-04-03T15:32:47;3.17;;;1.90;;
72273;SDS011;60208;48.692;8.948;2023-04-03T15:35:13;2.20;;;1.77;;
72273;SDS011;60208;48.692;8.948;2023-04-03T15:37:38;7.32;;;1.95;;
72273;SDS011;60208;48.692;8.948;2023-04-03T15:40:04;3.42;;;2.00;;
72273;SDS011;60208;48.692;8.948;2023-04-03T15:42:30;4.55;;;1.73;;
72273;SDS011;60208;48.692;8.948;2023-04-03T15:44:55;4.82;;;1.80;;
72273;SDS011;60208;48.692;8.948;2023-04-03T15:47:20;3.57;;;1.83;;
72273;SDS011;60208;48.692;8.948;2023-04-03T15:49:46;4.03;;;2.00;;
72273;SDS011;60208;48.692;8.948;2023-04-03T15:52:11;3.55;;;1.90;;
72273;SDS011;60208;48.692;8.948;2023-04-03T15:54:36;2.00;;;1.80;;
72273;SDS011;60208;48.692;8.948;2023-04-03T15:57:02;3.25;;;2.00;;
72273;SDS011;60208;48.692;8.948;2023-04-03T15:59:27;1.75;;;1.58;;
72273;SDS011;60208;48.692;8.948;2023-04-03T16:01:55;6.97;;;1.75;;
72273;SDS011;60208;48.692;8.948;2023-04-03T16:04:20;5.95;;;1.60;;
72273;SDS011;60208;48.692;8.948;2023-04-03T16:06:46;3.30;;;1.85;;
72273;SDS011;60208;48.692;8.948;2023-04-03T16:09:11;3.17;;;2.20;;